sensor_id;sensor_type;location;lat;lon;timestamp;P1;durP1;ratioP1;P2;durP2;ratioP2
16667;SDS011;8447;52.630;4.734;2024-03-25T00:01:17;12.47;;;1.57;;
16667;SDS011;8447;52.630;4.734;2024-03-25T00:03:44;8.23;;;1.80;;
16667;SDS011;8447;52.630;4.734;2024-03-25T00:06:09;3.70;;;1.00;;
16667;SDS011;8447;52.630;4.734;2024-03-25T00:08:35;4.00;;;0.77;;
16667;SDS011;8447;52.630;4.734;2024-03-25T00:11:01;10.23;;;1.40;;
16667;SDS011;8447;52.630;4.734;2024-03-25T00:13:28;9.80;;;2.17;;
16667;SDS011;8447;52.630;4.734;2024-03-25T00:15:53;9.97;;;1.47;;
16667;SDS011;8447;52.630;4.734;2024-03-25T00:18:21;7.70;;;1.33;;
16667;SDS011;8447;52.630;4.734;2024-03-25T00:20:47;12.63;;;1.97;;
16667;SDS011;8447;52.630;4.734;2024-03-25T00:23:12;12.10;;;2.00;;
16667;SDS011;8447;52.630;4.734;2024-03-25T00:25:40;13.13;;;1.80;;
16667;SDS011;8447;52.630;4.734;2024-03-25T00:28:05;8.40;;;2.40;;
16667;SDS011;8447;52.630;4.734;2024-03-25T00:30:31;10.47;;;2.00;;
16667;SDS011;8447;52.630;4.734;2024-03-25T00:32:57;10.80;;;1.57;;
16667;SDS011;8447;52.630;4.734;2024-03-25T00:35:24;8.73;;;1.50;;
16667;SDS011;8447;52.630;4.734;2024-03-25T00:37:50;4.37;;;1.10;;
16667;SDS011;8447;52.630;4.734;2024-03-25T00:40:16;3.33;;;1.23;;
16667;SDS011;8447;52.630;4.734;2024-03-25T00:42:42;7.20;;;2.00;;
16667;SDS011;8447;52.630;4.734;2024-03-25T00:45:08;13.47;;;2.07;;
16667;SDS011;8447;52.630;4.734;2024-03-25T00:47:34;7.83;;;1.47;;
16667;SDS011;8447;52.630;4.734;2024-03-25T00:50:00;8.77;;;1.80;;
16667;SDS011;8447;52.630;4.734;2024-03-25T00:52:27;8.40;;;1.90;;
16667;SDS011;8447;52.630;4.734;2024-03-25T00:54:53;8.57;;;2.00;;
16667;SDS011;8447;52.630;4.734;2024-03-25T00:57:19;7.97;;;1.20;;
16667;SDS011;8447;52.630;4.734;2024-03-25T00:59:45;12.70;;;2.37;;
16667;SDS011;8447;52.630;4.734;2024-03-25T01:02:10;7.83;;;1.03;;
16667;SDS011;8447;52.630;4.734;2024-03-25T01:04:37;12.87;;;1.63;;
16667;SDS011;8447;52.630;4.734;2024-03-25T01:07:02;6.13;;;1.53;;
16667;SDS011;8447;52.630;4.734;2024-03-25T01:09:30;9.83;;;1.43;;
16667;SDS011;8447;52.630;4.734;2024-03-25T01:11:56;10.07;;;1.80;;
16667;SDS011;8447;52.630;4.734;2024-03-25T01:14:23;11.00;;;1.77;;
16667;SDS011;8447;52.630;4.734;2024-03-25T01:16:48;6.53;;;1.60;;
16667;SDS011;8447;52.630;4.734;2024-03-25T01:19:15;7.03;;;1.50;;
16667;SDS011;8447;52.630;4.734;2024-03-25T01:21:40;8.30;;;1.40;;
16667;SDS011;8447;52.630;4.734;2024-03-25T01:24:06;5.60;;;1.27;;
16667;SDS011;8447;52.630;4.734;2024-03-25T01:26:44;9.90;;;1.93;;
16667;SDS011;8447;52.630;4.734;2024-03-25T01:29:11;7.17;;;1.73;;
16667;SDS011;8447;52.630;4.734;2024-03-25T01:31:36;7.80;;;1.37;;
16667;SDS011;8447;52.630;4.734;2024-03-25T01:34:02;5.40;;;1.47;;
16667;SDS011;8447;52.630;4.734;2024-03-25T01:36:28;5.47;;;1.37;;
16667;SDS011;8447;52.630;4.734;2024-03-25T01:38:54;12.80;;;1.93;;
16667;SDS011;8447;52.630;4.734;2024-03-25T01:41:21;7.73;;;1.47;;
16667;SDS011;8447;52.630;4.734;2024-03-25T01:43:50;7.70;;;1.37;;
16667;SDS011;8447;52.630;4.734;2024-03-25T01:46:15;4.27;;;1.13;;
16667;SDS011;8447;52.630;4.734;2024-03-25T01:48:42;8.60;;;1.37;;
16667;SDS011;8447;52.630;4.734;2024-03-25T01:51:08;8.40;;;1.50;;
16667;SDS011;8447;52.630;4.734;2024-03-25T01:53:35;12.07;;;1.97;;
16667;SDS011;8447;52.630;4.734;2024-03-25T01:56:00;5.17;;;1.20;;
16667;SDS011;8447;52.630;4.734;2024-03-25T01:58:27;6.53;;;1.30;;
16667;SDS011;8447;52.630;4.734;2024-03-25T02:00:54;6.03;;;1.27;;
16667;SDS011;8447;52.630;4.734;2024-03-25T02:03:21;13.77;;;1.93;;
16667;SDS011;8447;52.630;4.734;2024-03-25T02:05:47;6.30;;;1.97;;
16667;SDS011;8447;52.630;4.734;2024-03-25T02:08:15;11.47;;;1.63;;
16667;SDS011;8447;52.630;4.734;2024-03-25T02:10:40;6.57;;;1.47;;
16667;SDS011;8447;52.630;4.734;2024-03-25T02:13:07;10.60;;;2.03;;
16667;SDS011;8447;52.630;4.734;2024-03-25T02:15:32;9.00;;;2.17;;
16667;SDS011;8447;52.630;4.734;2024-03-25T02:18:00;8.97;;;1.50;;
16667;SDS011;8447;52.630;4.734;2024-03-25T02:20:26;10.17;;;1.50;;
16667;SDS011;8447;52.630;4.734;2024-03-25T02:22:53;10.37;;;1.40;;
16667;SDS011;8447;52.630;4.734;2024-03-25T02:25:20;11.03;;;1.27;;
16667;SDS011;8447;52.630;4.734;2024-03-25T02:27:48;8.87;;;1.43;;
16667;SDS011;8447;52.630;4.734;2024-03-25T02:30:14;9.13;;;2.03;;
16667;SDS011;8447;52.630;4.734;2024-03-25T02:32:40;6.63;;;1.40;;
16667;SDS011;8447;52.630;4.734;2024-03-25T02:35:07;7.20;;;1.40;;
16667;SDS011;8447;52.630;4.734;2024-03-25T02:37:33;6.90;;;1.37;;
16667;SDS011;8447;52.630;4.734;2024-03-25T02:40:00;8.07;;;2.10;;
16667;SDS011;8447;52.630;4.734;2024-03-25T02:42:27;4.57;;;1.87;;
16667;SDS011;8447;52.630;4.734;2024-03-25T02:44:55;5.73;;;1.33;;
16667;SDS011;8447;52.630;4.734;2024-03-25T02:47:21;5.70;;;1.60;;
16667;SDS011;8447;52.630;4.734;2024-03-25T02:49:47;7.50;;;1.57;;
16667;SDS011;8447;52.630;4.734;2024-03-25T02:52:13;16.83;;;1.47;;
16667;SDS011;8447;52.630;4.734;2024-03-25T02:54:39;13.90;;;1.80;;
16667;SDS011;8447;52.630;4.734;2024-03-25T02:57:05;7.13;;;1.50;;
16667;SDS011;8447;52.630;4.734;2024-03-25T02:59:30;11.63;;;1.20;;
16667;SDS011;8447;52.630;4.734;2024-03-25T03:01:58;4.50;;;1.60;;
16667;SDS011;8447;52.630;4.734;2024-03-25T03:04:23;10.20;;;1.30;;
16667;SDS011;8447;52.630;4.734;2024-03-25T03:06:50;2.83;;;1.07;;
16667;SDS011;8447;52.630;4.734;2024-03-25T03:09:15;8.83;;;1.27;;
16667;SDS011;8447;52.630;4.734;2024-03-25T03:11:41;7.40;;;1.63;;
16667;SDS011;8447;52.630;4.734;2024-03-25T03:14:07;8.43;;;1.17;;
16667;SDS011;8447;52.630;4.734;2024-03-25T03:16:33;11.00;;;1.47;;
16667;SDS011;8447;52.630;4.734;2024-03-25T03:19:00;7.37;;;1.20;;
16667;SDS011;8447;52.630;4.734;2024-03-25T03:21:26;6.50;;;1.20;;
16667;SDS011;8447;52.630;4.734;2024-03-25T03:23:51;8.57;;;1.23;;
16667;SDS011;8447;52.630;4.734;2024-03-25T03:26:18;1.93;;;1.20;;
16667;SDS011;8447;52.630;4.734;2024-03-25T03:28:43;6.17;;;1.03;;
16667;SDS011;8447;52.630;4.734;2024-03-25T03:31:10;5.40;;;0.77;;
16667;SDS011;8447;52.630;4.734;2024-03-25T03:33:36;5.70;;;0.93;;
16667;SDS011;8447;52.630;4.734;2024-03-25T03:36:06;6.97;;;1.33;;
16667;SDS011;8447;52.630;4.734;2024-03-25T03:38:32;5.87;;;1.60;;
16667;SDS011;8447;52.630;4.734;2024-03-25T03:40:58;6.63;;;1.20;;
16667;SDS011;8447;52.630;4.734;2024-03-25T03:43:24;4.60;;;0.97;;
16667;SDS011;8447;52.630;4.734;2024-03-25T03:45:50;6.23;;;0.80;;
16667;SDS011;8447;52.630;4.734;2024-03-25T03:48:16;9.80;;;1.60;;
16667;SDS011;8447;52.630;4.734;2024-03-25T03:50:42;2.43;;;0.60;;
16667;SDS011;8447;52.630;4.734;2024-03-25T03:53:09;7.33;;;0.90;;
16667;SDS011;8447;52.630;4.734;2024-03-25T03:55:35;5.83;;;1.03;;
16667;SDS011;8447;52.630;4.734;2024-03-25T03:58:00;6.83;;;1.43;;
16667;SDS011;8447;52.630;4.734;2024-03-25T04:00:27;4.17;;;0.93;;
16667;SDS011;8447;52.630;4.734;2024-03-25T04:02:52;9.40;;;1.13;;
16667;SDS011;8447;52.630;4.734;2024-03-25T04:05:19;6.70;;;1.27;;
16667;SDS011;8447;52.630;4.734;2024-03-25T04:07:44;6.20;;;1.60;;
16667;SDS011;8447;52.630;4.734;2024-03-25T04:10:12;5.57;;;0.97;;
16667;SDS011;8447;52.630;4.734;2024-03-25T04:12:38;7.47;;;1.13;;
16667;SDS011;8447;52.630;4.734;2024-03-25T04:15:05;8.07;;;1.30;;
16667;SDS011;8447;52.630;4.734;2024-03-25T04:17:31;3.77;;;1.10;;
16667;SDS011;8447;52.630;4.734;2024-03-25T04:19:58;7.70;;;1.30;;
16667;SDS011;8447;52.630;4.734;2024-03-25T04:22:25;7.50;;;1.43;;
16667;SDS011;8447;52.630;4.734;2024-03-25T04:24:51;14.80;;;1.30;;
16667;SDS011;8447;52.630;4.734;2024-03-25T04:27:18;7.17;;;1.53;;
16667;SDS011;8447;52.630;4.734;2024-03-25T04:29:47;7.63;;;1.30;;
16667;SDS011;8447;52.630;4.734;2024-03-25T04:32:12;4.57;;;1.30;;
16667;SDS011;8447;52.630;4.734;2024-03-25T04:34:39;7.20;;;1.27;;
16667;SDS011;8447;52.630;4.734;2024-03-25T04:37:04;5.70;;;1.30;;
16667;SDS011;8447;52.630;4.734;2024-03-25T04:39:30;6.97;;;1.23;;
16667;SDS011;8447;52.630;4.734;2024-03-25T04:41:55;9.30;;;1.37;;
16667;SDS011;8447;52.630;4.734;2024-03-25T04:44:22;4.67;;;0.90;;
16667;SDS011;8447;52.630;4.734;2024-03-25T04:46:47;11.43;;;1.03;;
16667;SDS011;8447;52.630;4.734;2024-03-25T04:49:13;7.20;;;1.70;;
16667;SDS011;8447;52.630;4.734;2024-03-25T04:51:38;7.87;;;1.07;;
16667;SDS011;8447;52.630;4.734;2024-03-25T04:54:04;3.57;;;1.30;;
16667;SDS011;8447;52.630;4.734;2024-03-25T04:56:29;6.17;;;1.13;;
16667;SDS011;8447;52.630;4.734;2024-03-25T04:58:55;11.03;;;1.10;;
16667;SDS011;8447;52.630;4.734;2024-03-25T05:01:22;7.63;;;1.67;;
16667;SDS011;8447;52.630;4.734;2024-03-25T05:03:47;4.20;;;1.17;;
16667;SDS011;8447;52.630;4.734;2024-03-25T05:06:13;4.83;;;1.20;;
16667;SDS011;8447;52.630;4.734;2024-03-25T05:08:38;6.87;;;1.30;;
16667;SDS011;8447;52.630;4.734;2024-03-25T05:11:03;7.97;;;1.00;;
16667;SDS011;8447;52.630;4.734;2024-03-25T05:13:29;2.37;;;1.00;;
16667;SDS011;8447;52.630;4.734;2024-03-25T05:15:55;6.57;;;1.10;;
16667;SDS011;8447;52.630;4.734;2024-03-25T05:18:23;5.33;;;1.00;;
16667;SDS011;8447;52.630;4.734;2024-03-25T05:20:48;5.17;;;1.07;;
16667;SDS011;8447;52.630;4.734;2024-03-25T05:23:14;8.47;;;1.53;;
16667;SDS011;8447;52.630;4.734;2024-03-25T05:25:39;4.83;;;1.33;;
16667;SDS011;8447;52.630;4.734;2024-03-25T05:28:05;6.77;;;0.90;;
16667;SDS011;8447;52.630;4.734;2024-03-25T05:30:30;6.63;;;1.50;;
16667;SDS011;8447;52.630;4.734;2024-03-25T05:32:56;3.53;;;0.87;;
16667;SDS011;8447;52.630;4.734;2024-03-25T05:35:22;2.70;;;1.10;;
16667;SDS011;8447;52.630;4.734;2024-03-25T05:37:48;4.30;;;1.03;;
16667;SDS011;8447;52.630;4.734;2024-03-25T05:40:13;7.17;;;1.07;;
16667;SDS011;8447;52.630;4.734;2024-03-25T05:42:39;4.47;;;1.17;;
16667;SDS011;8447;52.630;4.734;2024-03-25T05:45:04;5.97;;;1.30;;
16667;SDS011;8447;52.630;4.734;2024-03-25T05:47:30;6.97;;;1.10;;
16667;SDS011;8447;52.630;4.734;2024-03-25T05:49:55;7.97;;;1.00;;
16667;SDS011;8447;52.630;4.734;2024-03-25T05:52:22;5.33;;;1.10;;
16667;SDS011;8447;52.630;4.734;2024-03-25T05:54:48;4.40;;;1.57;;
16667;SDS011;8447;52.630;4.734;2024-03-25T05:57:13;5.90;;;0.93;;
16667;SDS011;8447;52.630;4.734;2024-03-25T05:59:39;3.80;;;1.23;;
16667;SDS011;8447;52.630;4.734;2024-03-25T06:02:04;4.57;;;1.10;;
16667;SDS011;8447;52.630;4.734;2024-03-25T06:04:30;2.83;;;1.73;;
16667;SDS011;8447;52.630;4.734;2024-03-25T06:06:55;8.33;;;2.40;;
16667;SDS011;8447;52.630;4.734;2024-03-25T06:09:22;5.30;;;1.30;;
16667;SDS011;8447;52.630;4.734;2024-03-25T06:11:47;4.47;;;1.07;;
16667;SDS011;8447;52.630;4.734;2024-03-25T06:14:13;4.87;;;1.13;;
16667;SDS011;8447;52.630;4.734;2024-03-25T06:16:38;4.60;;;0.90;;
16667;SDS011;8447;52.630;4.734;2024-03-25T06:19:04;5.63;;;1.23;;
16667;SDS011;8447;52.630;4.734;2024-03-25T06:21:29;4.10;;;0.90;;
16667;SDS011;8447;52.630;4.734;2024-03-25T06:23:54;8.47;;;1.37;;
16667;SDS011;8447;52.630;4.734;2024-03-25T06:26:21;8.03;;;1.40;;
16667;SDS011;8447;52.630;4.734;2024-03-25T06:28:47;5.97;;;1.00;;
16667;SDS011;8447;52.630;4.734;2024-03-25T06:31:12;7.30;;;1.57;;
16667;SDS011;8447;52.630;4.734;2024-03-25T06:33:56;4.23;;;1.37;;
16667;SDS011;8447;52.630;4.734;2024-03-25T06:36:40;4.33;;;1.10;;
16667;SDS011;8447;52.630;4.734;2024-03-25T06:39:06;7.20;;;1.23;;
16667;SDS011;8447;52.630;4.734;2024-03-25T06:41:32;4.90;;;1.30;;
16667;SDS011;8447;52.630;4.734;2024-03-25T06:43:58;7.47;;;1.30;;
16667;SDS011;8447;52.630;4.734;2024-03-25T06:46:23;5.67;;;1.00;;
16667;SDS011;8447;52.630;4.734;2024-03-25T06:48:49;3.97;;;1.40;;
16667;SDS011;8447;52.630;4.734;2024-03-25T06:51:14;4.73;;;1.50;;
16667;SDS011;8447;52.630;4.734;2024-03-25T06:53:40;8.23;;;1.07;;
16667;SDS011;8447;52.630;4.734;2024-03-25T06:56:05;5.47;;;1.50;;
16667;SDS011;8447;52.630;4.734;2024-03-25T06:58:32;4.13;;;1.20;;
16667;SDS011;8447;52.630;4.734;2024-03-25T07:01:04;6.53;;;1.47;;
16667;SDS011;8447;52.630;4.734;2024-03-25T07:03:30;7.93;;;1.10;;
16667;SDS011;8447;52.630;4.734;2024-03-25T07:05:55;8.97;;;1.23;;
16667;SDS011;8447;52.630;4.734;2024-03-25T07:08:21;6.87;;;1.40;;
16667;SDS011;8447;52.630;4.734;2024-03-25T07:10:46;5.80;;;1.00;;
16667;SDS011;8447;52.630;4.734;2024-03-25T07:13:12;6.17;;;1.60;;
16667;SDS011;8447;52.630;4.734;2024-03-25T07:15:39;4.70;;;1.27;;
16667;SDS011;8447;52.630;4.734;2024-03-25T07:18:04;3.30;;;1.10;;
16667;SDS011;8447;52.630;4.734;2024-03-25T07:20:30;6.57;;;1.23;;
16667;SDS011;8447;52.630;4.734;2024-03-25T07:22:55;7.30;;;1.00;;
16667;SDS011;8447;52.630;4.734;2024-03-25T07:25:21;3.43;;;1.10;;
16667;SDS011;8447;52.630;4.734;2024-03-25T07:27:46;2.50;;;0.90;;
16667;SDS011;8447;52.630;4.734;2024-03-25T07:30:12;5.17;;;0.97;;
16667;SDS011;8447;52.630;4.734;2024-03-25T07:32:39;8.17;;;1.13;;
16667;SDS011;8447;52.630;4.734;2024-03-25T07:35:05;7.47;;;1.47;;
16667;SDS011;8447;52.630;4.734;2024-03-25T07:37:30;5.43;;;1.17;;
16667;SDS011;8447;52.630;4.734;2024-03-25T07:39:56;6.83;;;1.20;;
16667;SDS011;8447;52.630;4.734;2024-03-25T07:42:21;5.67;;;1.20;;
16667;SDS011;8447;52.630;4.734;2024-03-25T07:44:47;4.90;;;0.90;;
16667;SDS011;8447;52.630;4.734;2024-03-25T07:47:12;5.50;;;1.17;;
16667;SDS011;8447;52.630;4.734;2024-03-25T07:49:39;5.70;;;1.27;;
16667;SDS011;8447;52.630;4.734;2024-03-25T07:52:05;1.80;;;0.80;;
16667;SDS011;8447;52.630;4.734;2024-03-25T07:54:30;8.17;;;0.90;;
16667;SDS011;8447;52.630;4.734;2024-03-25T07:56:55;4.60;;;1.33;;
16667;SDS011;8447;52.630;4.734;2024-03-25T07:59:21;3.50;;;1.03;;
16667;SDS011;8447;52.630;4.734;2024-03-25T08:01:46;5.43;;;1.10;;
16667;SDS011;8447;52.630;4.734;2024-03-25T08:04:12;6.37;;;1.33;;
16667;SDS011;8447;52.630;4.734;2024-03-25T08:06:38;4.17;;;0.90;;
16667;SDS011;8447;52.630;4.734;2024-03-25T08:09:04;5.27;;;1.13;;
16667;SDS011;8447;52.630;4.734;2024-03-25T08:11:30;5.70;;;0.93;;
16667;SDS011;8447;52.630;4.734;2024-03-25T08:13:55;2.30;;;1.17;;
16667;SDS011;8447;52.630;4.734;2024-03-25T08:16:21;2.37;;;0.83;;
16667;SDS011;8447;52.630;4.734;2024-03-25T08:18:46;3.33;;;1.00;;
16667;SDS011;8447;52.630;4.734;2024-03-25T08:21:12;4.73;;;1.20;;
16667;SDS011;8447;52.630;4.734;2024-03-25T08:23:38;2.77;;;1.30;;
16667;SDS011;8447;52.630;4.734;2024-03-25T08:26:04;3.50;;;1.10;;
16667;SDS011;8447;52.630;4.734;2024-03-25T08:28:30;6.77;;;1.37;;
16667;SDS011;8447;52.630;4.734;2024-03-25T08:30:55;5.50;;;1.60;;
16667;SDS011;8447;52.630;4.734;2024-03-25T08:33:20;5.03;;;0.87;;
16667;SDS011;8447;52.630;4.734;2024-03-25T08:35:46;2.23;;;0.77;;
16667;SDS011;8447;52.630;4.734;2024-03-25T08:38:11;5.30;;;1.10;;
16667;SDS011;8447;52.630;4.734;2024-03-25T08:40:40;3.37;;;0.87;;
16667;SDS011;8447;52.630;4.734;2024-03-25T08:43:06;3.57;;;0.93;;
16667;SDS011;8447;52.630;4.734;2024-03-25T08:45:31;6.17;;;1.37;;
16667;SDS011;8447;52.630;4.734;2024-03-25T08:47:57;4.37;;;0.97;;
16667;SDS011;8447;52.630;4.734;2024-03-25T08:50:22;5.17;;;1.10;;
16667;SDS011;8447;52.630;4.734;2024-03-25T08:52:48;5.93;;;1.07;;
16667;SDS011;8447;52.630;4.734;2024-03-25T08:55:13;5.33;;;0.97;;
16667;SDS011;8447;52.630;4.734;2024-03-25T08:57:40;4.40;;;0.97;;
16667;SDS011;8447;52.630;4.734;2024-03-25T09:00:06;4.80;;;1.00;;
16667;SDS011;8447;52.630;4.734;2024-03-25T09:02:31;6.43;;;1.33;;
16667;SDS011;8447;52.630;4.734;2024-03-25T09:04:57;6.63;;;1.07;;
16667;SDS011;8447;52.630;4.734;2024-03-25T09:07:22;4.93;;;1.20;;
16667;SDS011;8447;52.630;4.734;2024-03-25T09:09:48;6.70;;;1.23;;
16667;SDS011;8447;52.630;4.734;2024-03-25T09:12:32;4.10;;;1.03;;
16667;SDS011;8447;52.630;4.734;2024-03-25T09:14:59;4.23;;;0.90;;
16667;SDS011;8447;52.630;4.734;2024-03-25T09:17:24;2.93;;;0.90;;
16667;SDS011;8447;52.630;4.734;2024-03-25T09:19:50;6.93;;;1.07;;
16667;SDS011;8447;52.630;4.734;2024-03-25T09:22:15;4.93;;;1.30;;
16667;SDS011;8447;52.630;4.734;2024-03-25T09:24:40;6.67;;;1.60;;
16667;SDS011;8447;52.630;4.734;2024-03-25T09:27:06;8.60;;;1.50;;
16667;SDS011;8447;52.630;4.734;2024-03-25T09:29:31;3.80;;;1.23;;
16667;SDS011;8447;52.630;4.734;2024-03-25T09:31:58;3.43;;;1.43;;
16667;SDS011;8447;52.630;4.734;2024-03-25T09:34:24;5.10;;;0.90;;
16667;SDS011;8447;52.630;4.734;2024-03-25T09:36:49;4.47;;;1.17;;
16667;SDS011;8447;52.630;4.734;2024-03-25T09:39:14;8.43;;;1.40;;
16667;SDS011;8447;52.630;4.734;2024-03-25T09:41:40;4.00;;;1.00;;
16667;SDS011;8447;52.630;4.734;2024-03-25T09:44:07;7.00;;;1.17;;
16667;SDS011;8447;52.630;4.734;2024-03-25T09:46:33;3.33;;;1.27;;
16667;SDS011;8447;52.630;4.734;2024-03-25T09:49:00;6.90;;;1.43;;
16667;SDS011;8447;52.630;4.734;2024-03-25T09:51:25;4.47;;;1.20;;
16667;SDS011;8447;52.630;4.734;2024-03-25T09:53:52;6.20;;;1.60;;
16667;SDS011;8447;52.630;4.734;2024-03-25T09:56:17;5.70;;;1.30;;
16667;SDS011;8447;52.630;4.734;2024-03-25T09:58:43;4.20;;;1.30;;
16667;SDS011;8447;52.630;4.734;2024-03-25T10:01:09;6.87;;;1.27;;
16667;SDS011;8447;52.630;4.734;2024-03-25T10:03:34;6.70;;;1.07;;
16667;SDS011;8447;52.630;4.734;2024-03-25T10:06:01;4.30;;;1.20;;
16667;SDS011;8447;52.630;4.734;2024-03-25T10:08:27;3.63;;;1.13;;
16667;SDS011;8447;52.630;4.734;2024-03-25T10:10:53;6.63;;;1.37;;
16667;SDS011;8447;52.630;4.734;2024-03-25T10:13:19;5.97;;;1.30;;
16667;SDS011;8447;52.630;4.734;2024-03-25T10:15:47;7.03;;;1.70;;
16667;SDS011;8447;52.630;4.734;2024-03-25T10:18:12;6.93;;;1.50;;
16667;SDS011;8447;52.630;4.734;2024-03-25T10:20:37;8.37;;;1.33;;
16667;SDS011;8447;52.630;4.734;2024-03-25T10:23:04;9.13;;;1.93;;
16667;SDS011;8447;52.630;4.734;2024-03-25T10:25:30;7.17;;;1.57;;
16667;SDS011;8447;52.630;4.734;2024-03-25T10:27:56;8.13;;;1.40;;
16667;SDS011;8447;52.630;4.734;2024-03-25T10:30:22;7.47;;;1.60;;
16667;SDS011;8447;52.630;4.734;2024-03-25T10:32:57;6.90;;;1.37;;
16667;SDS011;8447;52.630;4.734;2024-03-25T10:35:23;4.87;;;1.57;;
16667;SDS011;8447;52.630;4.734;2024-03-25T10:37:48;4.10;;;1.20;;
16667;SDS011;8447;52.630;4.734;2024-03-25T10:40:16;7.43;;;2.10;;
16667;SDS011;8447;52.630;4.734;2024-03-25T10:42:41;4.77;;;1.33;;
16667;SDS011;8447;52.630;4.734;2024-03-25T10:45:09;5.10;;;1.50;;
16667;SDS011;8447;52.630;4.734;2024-03-25T10:47:35;5.73;;;1.43;;
16667;SDS011;8447;52.630;4.734;2024-03-25T10:50:01;6.53;;;2.03;;
16667;SDS011;8447;52.630;4.734;2024-03-25T10:52:30;11.27;;;1.60;;
16667;SDS011;8447;52.630;4.734;2024-03-25T10:54:57;4.67;;;1.30;;
16667;SDS011;8447;52.630;4.734;2024-03-25T10:57:24;8.77;;;1.60;;
16667;SDS011;8447;52.630;4.734;2024-03-25T10:59:51;8.73;;;1.30;;
16667;SDS011;8447;52.630;4.734;2024-03-25T11:02:16;9.27;;;1.70;;
16667;SDS011;8447;52.630;4.734;2024-03-25T11:04:42;9.43;;;1.80;;
16667;SDS011;8447;52.630;4.734;2024-03-25T11:07:08;9.93;;;1.67;;
16667;SDS011;8447;52.630;4.734;2024-03-25T11:09:34;4.97;;;1.77;;
16667;SDS011;8447;52.630;4.734;2024-03-25T11:11:59;5.70;;;1.70;;
16667;SDS011;8447;52.630;4.734;2024-03-25T11:14:26;5.87;;;1.67;;
16667;SDS011;8447;52.630;4.734;2024-03-25T11:16:52;3.50;;;1.53;;
16667;SDS011;8447;52.630;4.734;2024-03-25T11:19:17;6.80;;;2.00;;
16667;SDS011;8447;52.630;4.734;2024-03-25T11:21:43;4.73;;;1.77;;
16667;SDS011;8447;52.630;4.734;2024-03-25T11:24:08;5.10;;;1.67;;
16667;SDS011;8447;52.630;4.734;2024-03-25T11:26:34;7.20;;;2.00;;
16667;SDS011;8447;52.630;4.734;2024-03-25T11:29:00;3.27;;;1.60;;
16667;SDS011;8447;52.630;4.734;2024-03-25T11:31:27;7.83;;;2.17;;
16667;SDS011;8447;52.630;4.734;2024-03-25T11:33:52;10.17;;;2.03;;
16667;SDS011;8447;52.630;4.734;2024-03-25T11:36:20;9.97;;;2.10;;
16667;SDS011;8447;52.630;4.734;2024-03-25T11:38:45;5.00;;;1.50;;
16667;SDS011;8447;52.630;4.734;2024-03-25T11:41:11;6.03;;;1.97;;
16667;SDS011;8447;52.630;4.734;2024-03-25T11:43:36;6.73;;;1.70;;
16667;SDS011;8447;52.630;4.734;2024-03-25T11:46:02;5.63;;;1.50;;
16667;SDS011;8447;52.630;4.734;2024-03-25T11:48:30;6.80;;;1.53;;
16667;SDS011;8447;52.630;4.734;2024-03-25T11:50:55;6.47;;;2.10;;
16667;SDS011;8447;52.630;4.734;2024-03-25T11:53:20;9.63;;;1.73;;
16667;SDS011;8447;52.630;4.734;2024-03-25T11:55:46;8.33;;;1.80;;
16667;SDS011;8447;52.630;4.734;2024-03-25T11:58:12;8.57;;;2.10;;
16667;SDS011;8447;52.630;4.734;2024-03-25T12:00:42;8.17;;;2.10;;
16667;SDS011;8447;52.630;4.734;2024-03-25T12:03:07;7.47;;;2.27;;
16667;SDS011;8447;52.630;4.734;2024-03-25T12:05:34;7.50;;;1.87;;
16667;SDS011;8447;52.630;4.734;2024-03-25T12:08:00;4.63;;;1.43;;
16667;SDS011;8447;52.630;4.734;2024-03-25T12:10:25;5.03;;;1.50;;
16667;SDS011;8447;52.630;4.734;2024-03-25T12:13:10;5.20;;;2.23;;
16667;SDS011;8447;52.630;4.734;2024-03-25T12:15:36;5.77;;;1.90;;
16667;SDS011;8447;52.630;4.734;2024-03-25T12:18:01;7.13;;;1.50;;
16667;SDS011;8447;52.630;4.734;2024-03-25T12:20:27;6.17;;;1.97;;
16667;SDS011;8447;52.630;4.734;2024-03-25T12:22:54;4.43;;;1.60;;
16667;SDS011;8447;52.630;4.734;2024-03-25T12:25:19;7.07;;;1.53;;
16667;SDS011;8447;52.630;4.734;2024-03-25T12:27:45;5.87;;;1.50;;
16667;SDS011;8447;52.630;4.734;2024-03-25T12:30:11;6.53;;;1.60;;
16667;SDS011;8447;52.630;4.734;2024-03-25T12:32:37;7.63;;;2.03;;
16667;SDS011;8447;52.630;4.734;2024-03-25T12:35:03;9.80;;;1.80;;
16667;SDS011;8447;52.630;4.734;2024-03-25T12:37:29;4.87;;;2.00;;
16667;SDS011;8447;52.630;4.734;2024-03-25T12:39:57;4.07;;;1.53;;
16667;SDS011;8447;52.630;4.734;2024-03-25T12:42:23;5.70;;;1.43;;
16667;SDS011;8447;52.630;4.734;2024-03-25T12:44:49;7.53;;;1.83;;
16667;SDS011;8447;52.630;4.734;2024-03-25T12:47:14;6.67;;;1.60;;
16667;SDS011;8447;52.630;4.734;2024-03-25T12:49:39;6.63;;;1.80;;
16667;SDS011;8447;52.630;4.734;2024-03-25T12:52:05;8.17;;;1.60;;
16667;SDS011;8447;52.630;4.734;2024-03-25T12:54:31;3.37;;;1.27;;
16667;SDS011;8447;52.630;4.734;2024-03-25T12:56:57;5.60;;;1.57;;
16667;SDS011;8447;52.630;4.734;2024-03-25T12:59:23;6.63;;;2.00;;
16667;SDS011;8447;52.630;4.734;2024-03-25T13:01:48;3.57;;;1.60;;
16667;SDS011;8447;52.630;4.734;2024-03-25T13:04:14;8.73;;;1.47;;
16667;SDS011;8447;52.630;4.734;2024-03-25T13:06:39;8.30;;;1.97;;
16667;SDS011;8447;52.630;4.734;2024-03-25T13:09:05;4.93;;;1.87;;
16667;SDS011;8447;52.630;4.734;2024-03-25T13:11:42;5.10;;;1.60;;
16667;SDS011;8447;52.630;4.734;2024-03-25T13:14:15;8.10;;;1.77;;
16667;SDS011;8447;52.630;4.734;2024-03-25T13:16:41;3.27;;;1.33;;
16667;SDS011;8447;52.630;4.734;2024-03-25T13:19:07;5.93;;;1.93;;
16667;SDS011;8447;52.630;4.734;2024-03-25T13:21:32;7.80;;;2.40;;
16667;SDS011;8447;52.630;4.734;2024-03-25T13:23:58;7.07;;;2.17;;
16667;SDS011;8447;52.630;4.734;2024-03-25T13:26:23;5.17;;;2.17;;
16667;SDS011;8447;52.630;4.734;2024-03-25T13:28:49;6.27;;;2.80;;
16667;SDS011;8447;52.630;4.734;2024-03-25T13:31:16;5.40;;;1.73;;
16667;SDS011;8447;52.630;4.734;2024-03-25T13:33:41;4.13;;;1.93;;
16667;SDS011;8447;52.630;4.734;2024-03-25T13:36:07;2.83;;;1.57;;
16667;SDS011;8447;52.630;4.734;2024-03-25T13:38:32;4.60;;;1.97;;
16667;SDS011;8447;52.630;4.734;2024-03-25T13:40:58;6.67;;;1.70;;
16667;SDS011;8447;52.630;4.734;2024-03-25T13:43:24;3.00;;;1.60;;
16667;SDS011;8447;52.630;4.734;2024-03-25T13:45:50;7.33;;;1.80;;
16667;SDS011;8447;52.630;4.734;2024-03-25T13:48:16;5.03;;;1.93;;
16667;SDS011;8447;52.630;4.734;2024-03-25T13:50:42;6.23;;;2.07;;
16667;SDS011;8447;52.630;4.734;2024-03-25T13:53:07;4.93;;;1.90;;
16667;SDS011;8447;52.630;4.734;2024-03-25T13:55:33;5.27;;;2.27;;
16667;SDS011;8447;52.630;4.734;2024-03-25T13:57:58;2.63;;;1.57;;
16667;SDS011;8447;52.630;4.734;2024-03-25T14:00:24;4.57;;;1.90;;
16667;SDS011;8447;52.630;4.734;2024-03-25T14:02:49;5.50;;;2.00;;
16667;SDS011;8447;52.630;4.734;2024-03-25T14:05:16;4.60;;;2.20;;
16667;SDS011;8447;52.630;4.734;2024-03-25T14:07:41;5.43;;;1.70;;
16667;SDS011;8447;52.630;4.734;2024-03-25T14:10:07;4.73;;;2.37;;
16667;SDS011;8447;52.630;4.734;2024-03-25T14:12:33;6.00;;;2.10;;
16667;SDS011;8447;52.630;4.734;2024-03-25T14:14:58;4.40;;;2.17;;
16667;SDS011;8447;52.630;4.734;2024-03-25T14:17:24;2.87;;;1.60;;
16667;SDS011;8447;52.630;4.734;2024-03-25T14:19:49;5.10;;;2.17;;
16667;SDS011;8447;52.630;4.734;2024-03-25T14:22:20;2.97;;;1.80;;
16667;SDS011;8447;52.630;4.734;2024-03-25T14:24:45;8.97;;;2.53;;
16667;SDS011;8447;52.630;4.734;2024-03-25T14:27:11;5.07;;;2.00;;
16667;SDS011;8447;52.630;4.734;2024-03-25T14:29:37;5.27;;;2.30;;
16667;SDS011;8447;52.630;4.734;2024-03-25T14:32:02;3.53;;;2.40;;
16667;SDS011;8447;52.630;4.734;2024-03-25T14:34:27;6.93;;;2.80;;
16667;SDS011;8447;52.630;4.734;2024-03-25T14:36:53;6.10;;;2.43;;
16667;SDS011;8447;52.630;4.734;2024-03-25T14:39:20;5.97;;;2.47;;
16667;SDS011;8447;52.630;4.734;2024-03-25T14:41:45;8.77;;;2.80;;
16667;SDS011;8447;52.630;4.734;2024-03-25T14:44:11;5.53;;;2.43;;
16667;SDS011;8447;52.630;4.734;2024-03-25T14:46:36;6.63;;;2.50;;
16667;SDS011;8447;52.630;4.734;2024-03-25T14:49:01;6.40;;;2.83;;
16667;SDS011;8447;52.630;4.734;2024-03-25T14:51:27;4.13;;;1.97;;
16667;SDS011;8447;52.630;4.734;2024-03-25T14:53:52;7.40;;;2.20;;